KDMA/DMA METAR and TAF weather

Enter ICAO airport designator
Station Type Date Time Source
KDMA METAR 2022/05/23 14:58 UTC NOAA

KDMA 231458Z AUTO 00000KT 10SM CLR 24/02 A2992 RMK AO2 SLP089 T02370019 51005 $


Station Type Date Time Source
KDMA Decoded METAR 2022/05/23 14:58 UTC NOAA

Davis-Monthan Air Force Base, AZ, United States (KDMA) 32-10N 110-53W
May 23, 2022 - 10:58 AM EDT / 2022.05.23 1458 UTC
Wind: Calm:0
Visibility: 10 mile(s):0
Sky conditions: clear
Temperature: 74.7 F (23.7 C)
Dew Point: 35.4 F (1.9 C)
Relative Humidity: 23%
Pressure (altimeter): 29.92 in. Hg (1013 hPa)
Pressure tendency: 0.01 inches (0.5 hPa) higher than three hours ago
ob: KDMA 231458Z AUTO 00000KT 10SM CLR 24/02 A2992 RMK AO2 SLP089 T02370019 51005
cycle: 15

Station Type Date Time Source
KDMA TAF 2022/05/23 14:08 UTC NOAA

TAF KDMA 231401Z 2314/2420 VRB06KT 9999 SKC QNH2990INS
BECMG 2317/2318 30012KT 9999 SKC QNH2977INS
TEMPO 2321/2404 30014G22KT 510009
BECMG 2405/2406 VRB06KT 9999 SKC QNH2985INS TX33/2321Z TN16/2411Z

Example: see airport list